Time;durP1;ratioP1;P1;durP2;ratioP2;P2;SDS_P1;SDS_P2;PMS_P1;PMS_P2;Temp;Humidity;BMP_temperature;BMP_pressure;BME280_temperature;BME280_humidity;BME280_pressure;Samples;Min_cycle;Max_cycle;Signal;HPM_P1;HPM_P2
2020/12/10 00:02:11;;;;;;;2.90;1.50;;;20.80;49.40;;;;;;5128893;27;20062;-55
2020/12/10 00:04:36;;;;;;;2.63;1.45;;;20.80;49.40;;;;;;5130405;27;20117;-59
2020/12/10 00:07:03;;;;;;;2.20;1.40;;;20.80;49.40;;;;;;5116256;27;20027;-60
2020/12/10 00:09:29;;;;;;;3.33;1.40;;;20.80;49.40;;;;;;5111516;27;20272;-58
2020/12/10 00:11:55;;;;;;;4.00;1.70;;;20.80;49.50;;;;;;5126108;27;20027;-57
2020/12/10 00:14:20;;;;;;;3.25;1.60;;;20.80;49.50;;;;;;5126114;27;20264;-58
2020/12/10 00:16:47;;;;;;;2.88;1.50;;;20.70;49.40;;;;;;5123717;27;20031;-56
2020/12/10 00:19:13;;;;;;;4.18;1.60;;;20.70;49.50;;;;;;5108543;27;20039;-59
2020/12/10 00:21:38;;;;;;;2.58;1.40;;;20.70;49.50;;;;;;5132291;27;20450;-54
2020/12/10 00:24:04;;;;;;;2.97;1.67;;;20.70;49.50;;;;;;5141427;27;20023;-56
2020/12/10 00:26:29;;;;;;;2.72;1.50;;;20.70;49.50;;;;;;5112443;27;20051;-57
2020/12/10 00:28:55;;;;;;;2.30;1.30;;;20.70;49.50;;;;;;5130845;27;20034;-59
2020/12/10 00:31:21;;;;;;;2.53;1.50;;;20.70;49.50;;;;;;5129854;27;20171;-58
2020/12/10 00:33:46;;;;;;;2.30;1.30;;;20.70;49.60;;;;;;5139879;27;20032;-58
2020/12/10 00:36:13;;;;;;;2.45;1.30;;;20.60;49.50;;;;;;5124332;27;20040;-57
2020/12/10 00:38:38;;;;;;;2.53;1.27;;;20.60;49.50;;;;;;5126619;27;20492;-57
2020/12/10 00:41:04;;;;;;;2.47;1.40;;;20.60;49.50;;;;;;5130454;27;20047;-58
2020/12/10 00:43:30;;;;;;;2.67;1.40;;;20.60;49.50;;;;;;5127165;27;20796;-56
2020/12/10 00:46:00;;;;;;;2.35;1.40;;;20.60;49.50;;;;;;5128074;27;20070;-59
2020/12/10 00:48:26;;;;;;;2.13;1.30;;;20.60;49.50;;;;;;5117816;27;20121;-57
2020/12/10 00:50:51;;;;;;;2.38;1.50;;;20.60;49.50;;;;;;5130847;27;20071;-57
2020/12/10 00:53:17;;;;;;;2.65;1.50;;;20.50;49.50;;;;;;5137358;27;20043;-58
2020/12/10 00:55:43;;;;;;;2.58;1.40;;;20.50;49.60;;;;;;5127754;27;20016;-58
2020/12/10 00:58:08;;;;;;;3.50;1.40;;;20.50;49.60;;;;;;5123161;27;20484;-54
2020/12/10 01:00:34;;;;;;;3.03;1.38;;;20.50;49.60;;;;;;5124402;27;20023;-57
2020/12/10 01:02:59;;;;;;;2.40;1.40;;;20.50;49.60;;;;;;5129537;27;20031;-56
2020/12/10 01:05:25;;;;;;;2.13;1.23;;;20.50;49.60;;;;;;5127689;27;20478;-58
2020/12/10 01:07:51;;;;;;;3.03;1.35;;;20.50;49.70;;;;;;5130732;27;20156;-58
2020/12/10 01:10:17;;;;;;;3.45;1.40;;;20.40;49.60;;;;;;5135452;27;20117;-55
2020/12/10 01:12:42;;;;;;;3.40;1.77;;;20.40;49.60;;;;;;5123801;27;20038;-58
2020/12/10 01:15:08;;;;;;;2.33;1.38;;;20.40;49.60;;;;;;5124412;27;20119;-56
2020/12/10 01:17:34;;;;;;;1.85;1.15;;;20.40;49.60;;;;;;5116653;27;20027;-58
2020/12/10 01:19:59;;;;;;;2.72;1.20;;;20.40;49.60;;;;;;5126969;27;20040;-59
2020/12/10 01:22:25;;;;;;;3.28;1.25;;;20.40;49.70;;;;;;5130782;27;20071;-57
2020/12/10 01:24:50;;;;;;;3.60;1.38;;;20.40;49.70;;;;;;5119964;27;20083;-56
2020/12/10 01:27:21;;;;;;;3.67;1.40;;;20.40;50.20;;;;;;5119354;27;20058;-57
2020/12/10 01:29:47;;;;;;;2.83;1.40;;;20.40;49.70;;;;;;5123687;27;20475;-56
2020/12/10 01:32:12;;;;;;;2.22;1.30;;;20.30;49.60;;;;;;5129862;27;20433;-58
2020/12/10 01:34:38;;;;;;;2.90;1.50;;;20.30;49.70;;;;;;5123646;27;20019;-56
2020/12/10 01:37:03;;;;;;;2.10;1.20;;;20.30;49.70;;;;;;5115007;27;20024;-58
2020/12/10 01:39:29;;;;;;;2.10;1.20;;;20.30;49.70;;;;;;5120141;27;20261;-55
2020/12/10 01:41:55;;;;;;;1.95;1.20;;;20.30;49.70;;;;;;5126361;27;20021;-55
2020/12/10 01:44:20;;;;;;;2.83;1.35;;;20.30;49.70;;;;;;5124261;27;20093;-58
2020/12/10 01:46:46;;;;;;;2.22;1.40;;;20.30;49.70;;;;;;5118294;27;20031;-58
2020/12/10 01:49:11;;;;;;;2.25;1.30;;;20.30;49.80;;;;;;5129254;27;20465;-57
2020/12/10 01:51:37;;;;;;;2.05;1.20;;;20.30;49.80;;;;;;5133050;27;20125;-58
2020/12/10 01:54:05;;;;;;;2.25;1.30;;;20.20;49.70;;;;;;5126965;27;20030;-56
2020/12/10 01:56:31;;;;;;;1.98;1.30;;;20.20;49.70;;;;;;5111440;27;20023;-57
2020/12/10 01:58:59;;;;;;;1.98;1.20;;;20.20;49.80;;;;;;5118470;27;20404;-58
2020/12/10 02:01:28;;;;;;;2.65;1.40;;;20.20;49.80;;;;;;5110710;27;20500;-59
2020/12/10 02:03:54;;;;;;;1.85;1.20;;;20.20;49.80;;;;;;5110848;27;20024;-56
2020/12/10 02:06:20;;;;;;;2.53;1.27;;;20.20;49.80;;;;;;5117378;27;20087;-57
2020/12/10 02:08:45;;;;;;;2.65;1.20;;;20.20;49.80;;;;;;5118890;27;20031;-57
2020/12/10 02:11:11;;;;;;;2.10;1.20;;;20.10;49.80;;;;;;5128484;27;20132;-59
2020/12/10 02:13:37;;;;;;;3.30;1.30;;;20.20;49.90;;;;;;5126719;27;20037;-56
2020/12/10 02:16:04;;;;;;;1.88;1.02;;;20.10;49.80;;;;;;5122827;27;20427;-57
2020/12/10 02:18:30;;;;;;;1.63;1.00;;;20.20;49.90;;;;;;5112622;27;20036;-56
2020/12/10 02:20:56;;;;;;;1.48;1.00;;;20.10;49.80;;;;;;5116540;27;20027;-58
2020/12/10 02:23:21;;;;;;;2.08;1.38;;;20.10;49.80;;;;;;5116156;27;20031;-57
2020/12/10 02:25:47;;;;;;;1.88;1.10;;;20.10;49.90;;;;;;5131146;27;20030;-58
2020/12/10 02:28:15;;;;;;;1.70;1.10;;;20.10;49.90;;;;;;5130827;27;20031;-57
2020/12/10 02:30:41;;;;;;;1.73;1.13;;;20.10;49.90;;;;;;5125046;27;20031;-58
2020/12/10 02:33:09;;;;;;;1.95;1.05;;;20.10;49.90;;;;;;5115932;27;20453;-57
2020/12/10 02:35:36;;;;;;;1.98;1.02;;;20.10;49.90;;;;;;5113800;27;20533;-56
2020/12/10 02:38:05;;;;;;;2.38;1.27;;;20.10;49.90;;;;;;5122150;27;20114;-56
2020/12/10 02:40:37;;;;;;;2.78;1.30;;;20.10;49.90;;;;;;5131625;27;20159;-57
2020/12/10 02:43:02;;;;;;;1.63;1.00;;;20.10;49.90;;;;;;5138894;27;20050;-54
2020/12/10 02:45:29;;;;;;;2.25;1.23;;;20.10;49.90;;;;;;5130378;27;20454;-60
2020/12/10 02:47:55;;;;;;;1.60;1.10;;;20.00;49.90;;;;;;5109196;27;20529;-55
2020/12/10 02:50:21;;;;;;;1.25;0.90;;;20.00;49.90;;;;;;5118817;27;20027;-56
2020/12/10 02:52:47;;;;;;;1.98;1.20;;;20.00;49.90;;;;;;5125068;27;20493;-57
2020/12/10 02:55:13;;;;;;;2.35;1.13;;;20.00;49.90;;;;;;5124576;27;20029;-56
2020/12/10 02:57:39;;;;;;;2.28;1.00;;;20.00;49.90;;;;;;5122574;27;20442;-56
2020/12/10 03:00:07;;;;;;;2.03;1.08;;;20.00;49.90;;;;;;5135463;27;20023;-57
2020/12/10 03:02:33;;;;;;;2.22;0.90;;;20.00;50.00;;;;;;5129721;27;20035;-57
2020/12/10 03:04:58;;;;;;;1.55;0.95;;;20.00;49.90;;;;;;5124769;27;20023;-57
2020/12/10 03:07:24;;;;;;;2.00;1.00;;;20.00;50.00;;;;;;5130246;27;20449;-58
2020/12/10 03:09:49;;;;;;;1.65;1.10;;;20.00;50.00;;;;;;5130319;27;20031;-56
2020/12/10 03:12:15;;;;;;;1.70;1.00;;;20.00;50.00;;;;;;5135625;27;20106;-55
2020/12/10 03:14:41;;;;;;;1.17;0.82;;;20.00;50.00;;;;;;5123347;27;20023;-54
2020/12/10 03:17:06;;;;;;;1.75;1.10;;;20.00;50.00;;;;;;5126412;27;20023;-55
2020/12/10 03:19:32;;;;;;;1.77;1.00;;;19.90;49.90;;;;;;5127291;27;20039;-60
2020/12/10 03:21:58;;;;;;;1.35;1.00;;;19.90;50.00;;;;;;5139309;27;20046;-55
2020/12/10 03:24:24;;;;;;;2.28;1.20;;;19.90;49.90;;;;;;5130613;27;20026;-58
2020/12/10 03:26:49;;;;;;;1.77;0.95;;;19.90;50.00;;;;;;5125444;27;20125;-58
2020/12/10 03:29:15;;;;;;;1.88;1.00;;;19.90;50.00;;;;;;5122997;27;20458;-56
2020/12/10 03:31:40;;;;;;;2.10;1.00;;;19.90;50.00;;;;;;5119614;27;20083;-59
2020/12/10 03:34:06;;;;;;;1.20;0.90;;;19.90;50.00;;;;;;5116812;27;20458;-57
2020/12/10 03:36:46;;;;;;;1.42;0.90;;;19.90;50.00;;;;;;5133824;27;20071;-59
2020/12/10 03:39:12;;;;;;;1.52;1.00;;;19.90;50.00;;;;;;5127786;27;20024;-58
2020/12/10 03:41:37;;;;;;;1.60;0.85;;;19.90;50.10;;;;;;5114711;28;20280;-57
2020/12/10 03:44:03;;;;;;;2.25;1.10;;;19.90;50.10;;;;;;5130526;27;20038;-57
2020/12/10 03:46:29;;;;;;;2.15;1.10;;;19.90;50.10;;;;;;5113663;27;20032;-57
2020/12/10 03:48:54;;;;;;;1.35;0.90;;;19.90;50.00;;;;;;5119417;27;20035;-57
2020/12/10 03:51:20;;;;;;;1.70;0.90;;;19.90;50.10;;;;;;5130477;27;20341;-59
2020/12/10 03:53:45;;;;;;;2.30;1.55;;;19.90;50.10;;;;;;5127481;27;20034;-54
2020/12/10 03:56:11;;;;;;;1.45;1.00;;;19.90;50.10;;;;;;5121015;27;20024;-56
2020/12/10 03:58:36;;;;;;;1.25;0.90;;;19.90;50.10;;;;;;5121675;27;20028;-56
2020/12/10 04:01:02;;;;;;;1.60;0.90;;;19.90;50.10;;;;;;5134035;27;20388;-59
2020/12/10 04:03:27;;;;;;;1.52;0.95;;;19.80;50.00;;;;;;5124007;27;20126;-57
2020/12/10 04:05:53;;;;;;;1.77;0.90;;;19.80;50.00;;;;;;5117761;27;20150;-57
2020/12/10 04:08:19;;;;;;;1.40;0.90;;;19.90;50.00;;;;;;5126782;27;20037;-58
2020/12/10 04:10:44;;;;;;;1.55;0.88;;;19.90;50.00;;;;;;5132060;27;20032;-58
2020/12/10 04:13:10;;;;;;;1.38;0.82;;;19.80;50.00;;;;;;5138257;27;20024;-57
2020/12/10 04:15:35;;;;;;;1.40;1.00;;;19.80;50.00;;;;;;5119451;27;20089;-52
2020/12/10 04:18:01;;;;;;;1.25;0.88;;;19.80;50.00;;;;;;5120304;27;20497;-57
2020/12/10 04:20:26;;;;;;;1.33;0.88;;;19.80;50.50;;;;;;5130349;27;20033;-56
2020/12/10 04:22:52;;;;;;;1.23;0.98;;;19.80;50.00;;;;;;5139170;27;20172;-57
2020/12/10 04:25:18;;;;;;;1.00;0.80;;;19.80;50.00;;;;;;5129258;27;20667;-58
2020/12/10 04:27:43;;;;;;;1.30;0.80;;;19.80;50.00;;;;;;5134505;27;20031;-53
2020/12/10 04:30:09;;;;;;;1.63;1.00;;;19.80;50.00;;;;;;5126525;27;20031;-56
2020/12/10 04:32:34;;;;;;;1.08;0.75;;;19.80;50.00;;;;;;5123308;27;20106;-53
2020/12/10 04:35:00;;;;;;;1.90;0.90;;;19.80;50.00;;;;;;5131813;27;20046;-59
2020/12/10 04:37:25;;;;;;;1.25;0.80;;;19.80;50.20;;;;;;5121481;27;20093;-58
2020/12/10 04:39:51;;;;;;;1.25;0.98;;;19.80;50.00;;;;;;5136424;27;20077;-59
2020/12/10 04:42:18;;;;;;;0.80;0.73;;;19.80;50.00;;;;;;5128612;27;20043;-58
2020/12/10 04:44:46;;;;;;;1.20;0.90;;;19.80;50.00;;;;;;5127051;27;20070;-57
2020/12/10 04:47:12;;;;;;;1.13;0.90;;;19.80;50.00;;;;;;5129272;27;20035;-58
2020/12/10 04:49:39;;;;;;;1.45;0.90;;;19.80;50.00;;;;;;5125536;27;20031;-58
2020/12/10 04:52:07;;;;;;;1.23;0.80;;;19.80;50.00;;;;;;5135476;27;20467;-57
2020/12/10 04:54:33;;;;;;;1.20;0.80;;;19.80;50.00;;;;;;5133729;27;20020;-57
2020/12/10 04:57:02;;;;;;;1.30;0.90;;;19.80;50.00;;;;;;5126890;27;20032;-58
2020/12/10 04:59:27;;;;;;;1.02;0.80;;;19.80;50.00;;;;;;5120909;27;20047;-59
2020/12/10 05:01:55;;;;;;;1.00;0.73;;;19.80;50.10;;;;;;5128297;27;20046;-59
2020/12/10 05:04:23;;;;;;;1.13;0.70;;;19.80;50.10;;;;;;5127104;27;20464;-54
2020/12/10 05:06:50;;;;;;;0.95;0.80;;;19.80;50.10;;;;;;5115517;27;20043;-60
2020/12/10 05:09:17;;;;;;;1.20;0.90;;;19.70;50.00;;;;;;5121960;27;20331;-58
2020/12/10 05:11:42;;;;;;;1.02;0.80;;;19.70;50.00;;;;;;5123229;27;20023;-58
2020/12/10 05:14:08;;;;;;;1.25;0.73;;;19.70;50.10;;;;;;5121039;27;20026;-58
2020/12/10 05:16:34;;;;;;;1.30;0.80;;;19.70;50.10;;;;;;5121805;27;20047;-58
2020/12/10 05:19:19;;;;;;;1.48;0.80;;;19.70;50.10;;;;;;5135499;27;20049;-58
2020/12/10 05:22:14;;;;;;;1.02;0.80;;;19.70;50.20;;;;;;5127978;27;20019;-60
2020/12/10 05:24:40;;;;;;;1.13;0.73;;;19.70;50.20;;;;;;5104890;27;20050;-58
2020/12/10 05:27:22;;;;;;;1.70;0.80;;;19.70;50.20;;;;;;5119370;27;20026;-59
2020/12/10 05:29:49;;;;;;;1.50;0.80;;;19.70;50.30;;;;;;5104912;27;20073;-59
2020/12/10 05:32:38;;;;;;;1.52;0.80;;;19.70;50.30;;;;;;5122648;27;20055;-56
2020/12/10 05:35:23;;;;;;;1.30;0.80;;;19.70;50.30;;;;;;5120479;27;20035;-61
2020/12/10 05:37:51;;;;;;;2.38;0.93;;;19.70;50.30;;;;;;5128370;27;20576;-57
2020/12/10 05:40:17;;;;;;;1.30;0.88;;;19.70;50.30;;;;;;5126808;27;20453;-56
2020/12/10 05:42:47;;;;;;;1.40;0.88;;;19.70;50.40;;;;;;5135544;27;20070;-60
2020/12/10 05:45:17;;;;;;;;;;;19.70;50.40;;;;;;5129771;27;20036;-57
2020/12/10 05:47:50;;;;;;;1.85;0.95;;;19.70;50.40;;;;;;5125567;27;19975;-58
2020/12/10 05:50:26;;;;;;;1.27;0.90;;;19.70;50.50;;;;;;5129908;27;20084;-58
2020/12/10 05:53:10;;;;;;;2.25;0.82;;;19.70;50.40;;;;;;5135226;27;20380;-57
2020/12/10 05:55:41;;;;;;;1.77;0.90;;;19.60;50.50;;;;;;5131561;27;20391;-59
2020/12/10 05:58:07;;;;;;;1.13;0.80;;;19.60;50.50;;;;;;5120629;27;20023;-57
2020/12/10 06:00:34;;;;;;;2.08;0.90;;;19.60;50.50;;;;;;5118044;27;20015;-60
2020/12/10 06:03:01;;;;;;;1.65;0.80;;;19.60;50.50;;;;;;5131338;27;20130;-57
2020/12/10 06:05:27;;;;;;;1.73;1.00;;;19.60;50.60;;;;;;5117129;27;20023;-56
2020/12/10 06:08:09;;;;;;;1.55;0.90;;;19.60;50.60;;;;;;5126403;27;20053;-58
2020/12/10 06:10:37;;;;;;;2.30;1.00;;;19.60;50.60;;;;;;5127540;27;20046;-59
2020/12/10 06:13:03;;;;;;;1.90;1.00;;;19.60;50.60;;;;;;5114337;27;20510;-58
2020/12/10 06:15:32;;;;;;;2.05;1.10;;;19.60;50.70;;;;;;5122151;27;20145;-59
2020/12/10 06:18:16;;;;;;;2.55;1.10;;;19.60;50.70;;;;;;5117555;27;20039;-51
2020/12/10 06:20:46;;;;;;;2.15;0.93;;;19.60;50.70;;;;;;5111118;27;20027;-60
2020/12/10 06:23:32;;;;;;;2.30;1.10;;;19.60;50.70;;;;;;5115608;27;20038;-60
2020/12/10 06:26:23;;;;;;;2.55;1.40;;;19.60;51.40;;;;;;5121022;27;20015;-60
2020/12/10 06:28:49;;;;;;;3.10;1.38;;;19.80;52.00;;;;;;5127938;27;20037;-59
2020/12/10 06:31:15;;;;;;;3.50;1.48;;;20.00;51.70;;;;;;5127056;27;20370;-57
2020/12/10 06:33:41;;;;;;;2.67;1.33;;;20.30;51.70;;;;;;5118798;27;20725;-56
2020/12/10 06:36:21;;;;;;;3.65;1.30;;;20.50;51.30;;;;;;5121532;27;20030;-57
2020/12/10 06:38:50;;;;;;;2.58;1.40;;;20.80;51.10;;;;;;5109616;27;20469;-60
2020/12/10 06:41:16;;;;;;;2.10;1.33;;;21.00;50.80;;;;;;5126538;27;20047;-58
2020/12/10 06:43:41;;;;;;;2.67;1.20;;;21.20;50.50;;;;;;5116050;27;20063;-58
2020/12/10 06:46:07;;;;;;;2.83;1.40;;;21.40;50.20;;;;;;5124938;27;20458;-57
2020/12/10 06:48:44;;;;;;;2.97;1.55;;;21.60;50.10;;;;;;5114716;27;20114;-58
2020/12/10 06:51:15;;;;;;;2.78;1.27;;;21.70;49.90;;;;;;5116117;27;20035;-57
2020/12/10 06:54:01;;;;;;;2.88;1.13;;;21.90;49.80;;;;;;5123306;27;20027;-58
2020/12/10 06:56:49;;;;;;;1.75;1.10;;;22.10;49.70;;;;;;5119533;27;20027;-61
2020/12/10 06:59:15;;;;;;;2.20;1.10;;;22.30;49.60;;;;;;5129764;27;20028;-59
2020/12/10 07:01:40;;;;;;;1.27;0.80;;;22.40;49.50;;;;;;5123798;27;20450;-60
2020/12/10 07:07:13;;;;;;;1.25;0.80;;;22.20;49.70;;;;;;5113815;27;20044;-57
2020/12/10 07:10:02;;;;;;;2.85;0.80;;;22.00;49.90;;;;;;5125019;27;20023;-57
2020/12/10 07:12:40;;;;;;;2.05;0.80;;;22.00;50.20;;;;;;5127497;27;20027;-57
2020/12/10 07:15:12;;;;;;;1.48;0.80;;;21.90;50.30;;;;;;5119807;27;20422;-59
2020/12/10 07:17:37;;;;;;;1.98;1.00;;;21.80;50.30;;;;;;5118556;27;20092;-60
2020/12/10 07:20:03;;;;;;;2.40;1.20;;;22.00;50.80;;;;;;5129065;27;20018;-59
2020/12/10 07:22:29;;;;;;;2.70;1.27;;;22.20;50.50;;;;;;5128033;27;20022;-57
2020/12/10 07:24:55;;;;;;;1.50;0.80;;;22.50;50.10;;;;;;5130953;27;20039;-61
2020/12/10 07:27:21;;;;;;;2.15;1.10;;;22.80;49.50;;;;;;5120399;27;20127;-61
2020/12/10 07:29:50;;;;;;;1.55;0.80;;;23.00;49.30;;;;;;5132240;27;20038;-58
2020/12/10 07:32:16;;;;;;;1.00;0.70;;;23.10;49.00;;;;;;5117662;28;20011;-56
2020/12/10 07:34:45;;;;;;;0.70;0.68;;;23.10;49.20;;;;;;5118170;27;20516;-55
2020/12/10 07:37:13;;;;;;;0.98;0.70;;;22.90;49.70;;;;;;5117647;27;20134;-59
2020/12/10 07:39:39;;;;;;;0.95;0.60;;;22.80;49.50;;;;;;5121810;27;20434;-59
2020/12/10 07:42:05;;;;;;;1.17;0.80;;;22.70;49.70;;;;;;5126352;27;20033;-57
2020/12/10 07:44:32;;;;;;;1.38;0.80;;;22.80;50.20;;;;;;5127841;27;20038;-58
2020/12/10 07:46:59;;;;;;;1.27;0.80;;;23.00;50.00;;;;;;5109902;27;20036;-56
2020/12/10 07:49:29;;;;;;;1.60;0.90;;;23.20;49.40;;;;;;5118565;27;20045;-58
2020/12/10 07:52:05;;;;;;;1.17;0.75;;;23.10;48.90;;;;;;5139063;27;20047;-59
2020/12/10 07:54:52;;;;;;;1.35;0.70;;;23.00;48.90;;;;;;5127479;27;20121;-57
2020/12/10 07:57:32;;;;;;;1.17;0.70;;;23.00;49.10;;;;;;5125824;27;20022;-53
2020/12/10 08:00:07;;;;;;;1.02;0.70;;;22.90;49.20;;;;;;5124214;27;20038;-59
2020/12/10 08:02:53;;;;;;;1.25;0.70;;;22.90;49.20;;;;;;5121515;27;20031;-57
2020/12/10 08:05:19;;;;;;;3.05;0.93;;;22.90;49.40;;;;;;5124652;27;20879;-58
2020/12/10 08:07:52;;;;;;;1.38;0.82;;;23.00;49.80;;;;;;5125012;27;20027;-58
2020/12/10 08:10:21;;;;;;;1.45;0.70;;;23.20;49.60;;;;;;5127751;27;20331;-56
2020/12/10 08:13:09;;;;;;;2.05;0.90;;;23.20;49.50;;;;;;5117323;27;20035;-59
2020/12/10 08:15:35;;;;;;;1.35;0.80;;;23.20;49.60;;;;;;5122444;27;20760;-59
2020/12/10 08:18:05;;;;;;;1.60;0.80;;;23.20;49.90;;;;;;5129593;27;20027;-59
2020/12/10 08:20:35;;;;;;;1.55;0.70;;;23.20;49.70;;;;;;5120802;27;20537;-59
2020/12/10 08:23:01;;;;;;;1.30;0.90;;;23.20;49.90;;;;;;5130255;27;20023;-59
2020/12/10 08:25:27;;;;;;;1.58;0.80;;;23.20;50.30;;;;;;5134745;27;20037;-61
2020/12/10 08:27:52;;;;;;;1.30;0.90;;;23.40;50.10;;;;;;5137478;27;20038;-58
2020/12/10 08:30:18;;;;;;;1.52;0.80;;;23.40;50.00;;;;;;5116333;27;20019;-59
2020/12/10 08:32:56;;;;;;;0.85;0.60;;;23.40;50.00;;;;;;5119432;27;20950;-60
2020/12/10 08:35:22;;;;;;;1.75;0.90;;;23.40;50.00;;;;;;5115302;27;20182;-61
2020/12/10 08:37:47;;;;;;;1.80;0.80;;;23.30;49.90;;;;;;5120087;27;20062;-58
2020/12/10 08:40:23;;;;;;;2.25;0.65;;;23.30;49.80;;;;;;5124275;27;20027;-60
2020/12/10 08:42:49;;;;;;;1.67;0.85;;;23.30;50.00;;;;;;5125507;27;20531;-57
2020/12/10 08:45:31;;;;;;;1.13;0.73;;;23.40;50.80;;;;;;5124332;27;20109;-58
2020/12/10 08:47:58;;;;;;;1.00;0.63;;;23.50;50.10;;;;;;5121650;27;20429;-58
2020/12/10 08:50:27;;;;;;;0.85;0.63;;;23.60;50.10;;;;;;5117327;27;20442;-61
2020/12/10 08:52:59;;;;;;;2.03;1.15;;;23.50;49.90;;;;;;5135907;27;20113;-59
2020/12/10 08:55:34;;;;;;;1.05;0.70;;;23.50;50.00;;;;;;5127879;27;20036;-61
2020/12/10 08:58:00;;;;;;;1.58;0.80;;;23.50;50.00;;;;;;5124272;27;20346;-56
2020/12/10 09:00:25;;;;;;;0.88;0.68;;;23.50;49.90;;;;;;5139808;27;20027;-55
2020/12/10 09:02:51;;;;;;;1.15;0.77;;;23.40;49.90;;;;;;5131707;27;20686;-59
2020/12/10 09:05:17;;;;;;;0.93;0.70;;;23.40;50.00;;;;;;5131191;27;20027;-58
2020/12/10 09:07:42;;;;;;;2.22;0.70;;;23.50;50.10;;;;;;5121630;27;20164;-56
2020/12/10 09:10:08;;;;;;;0.93;0.60;;;23.40;50.00;;;;;;5122660;27;20038;-53
2020/12/10 09:12:34;;;;;;;1.15;0.70;;;23.40;50.10;;;;;;5129778;27;20366;-56
2020/12/10 09:14:59;;;;;;;1.00;0.70;;;23.40;50.10;;;;;;5129209;27;20039;-55
2020/12/10 09:17:27;;;;;;;1.15;0.80;;;23.40;50.10;;;;;;5110434;27;20066;-56
2020/12/10 09:19:53;;;;;;;1.52;0.70;;;23.50;50.20;;;;;;5123625;27;20717;-59
2020/12/10 09:22:19;;;;;;;0.77;0.60;;;23.40;50.10;;;;;;5126534;27;20113;-54
2020/12/10 09:24:44;;;;;;;0.98;0.70;;;23.50;50.60;;;;;;5115488;27;20100;-58
2020/12/10 09:27:10;;;;;;;1.42;0.63;;;23.50;50.90;;;;;;5122321;27;20038;-60
2020/12/10 09:29:38;;;;;;;0.90;0.80;;;23.60;51.10;;;;;;5126410;27;20062;-57
2020/12/10 09:32:04;;;;;;;1.85;0.70;;;23.60;50.60;;;;;;5118072;27;20057;-59
2020/12/10 09:34:30;;;;;;;0.57;0.52;;;23.60;50.90;;;;;;5123834;27;20479;-58
2020/12/10 09:36:58;;;;;;;0.65;0.52;;;23.60;50.90;;;;;;5118784;27;20150;-60
2020/12/10 09:39:24;;;;;;;0.98;0.70;;;23.60;50.90;;;;;;5136427;27;20513;-57
2020/12/10 09:41:49;;;;;;;1.17;0.63;;;23.60;50.60;;;;;;5126958;27;20111;-57
2020/12/10 09:44:15;;;;;;;1.02;0.60;;;23.60;50.80;;;;;;5123947;27;20039;-59
2020/12/10 09:46:41;;;;;;;0.57;0.50;;;23.60;50.60;;;;;;5114162;27;20058;-57
2020/12/10 09:49:07;;;;;;;1.38;0.57;;;23.60;50.80;;;;;;5124968;27;20492;-54
2020/12/10 09:51:46;;;;;;;0.95;0.55;;;23.60;50.70;;;;;;5129041;27;20030;-58
2020/12/10 09:54:31;;;;;;;0.47;0.47;;;23.60;50.80;;;;;;5110452;27;20122;-59
2020/12/10 09:59:27;;;;;;;0.90;0.60;;;23.60;50.80;;;;;;5126318;27;20023;-53
2020/12/10 10:01:52;;;;;;;1.08;0.65;;;23.60;51.30;;;;;;5113415;27;20039;-58
2020/12/10 10:04:18;;;;;;;1.00;0.60;;;23.60;50.80;;;;;;5117936;27;20027;-56
2020/12/10 10:06:44;;;;;;;1.08;0.63;;;23.60;50.80;;;;;;5118754;27;20339;-58
2020/12/10 10:09:10;;;;;;;0.60;0.50;;;23.60;51.30;;;;;;5111221;27;20168;-55
2020/12/10 10:11:36;;;;;;;1.33;0.70;;;23.60;50.80;;;;;;5116461;27;20099;-59
2020/12/10 10:14:02;;;;;;;0.63;0.55;;;23.60;50.90;;;;;;5128021;27;20173;-59
2020/12/10 10:16:31;;;;;;;1.40;0.75;;;23.60;50.60;;;;;;5136945;27;20030;-55
2020/12/10 10:18:58;;;;;;;1.17;0.68;;;23.60;50.50;;;;;;5116130;27;20023;-58
2020/12/10 10:21:28;;;;;;;1.55;0.82;;;23.60;50.50;;;;;;5119302;27;20483;-58
2020/12/10 10:23:57;;;;;;;2.47;1.20;;;23.70;50.00;;;;;;5131992;27;20035;-58
2020/12/10 10:26:23;;;;;;;2.42;1.40;;;23.60;46.80;;;;;;5120855;27;20445;-54
2020/12/10 10:28:50;;;;;;;4.13;1.60;;;23.60;46.20;;;;;;5116831;27;20524;-59
2020/12/10 10:31:16;;;;;;;2.28;1.30;;;23.60;46.40;;;;;;5122306;27;20496;-60
2020/12/10 10:33:42;;;;;;;2.97;1.55;;;23.60;46.30;;;;;;5115539;27;20184;-59
2020/12/10 10:36:07;;;;;;;1.98;1.23;;;23.60;46.10;;;;;;5130371;27;20019;-54
2020/12/10 10:38:33;;;;;;;2.90;1.55;;;23.50;45.90;;;;;;5123306;27;20441;-58
2020/12/10 10:40:59;;;;;;;2.45;1.50;;;23.50;46.00;;;;;;5119359;27;20023;-57
2020/12/10 10:43:25;;;;;;;2.10;1.30;;;23.40;46.00;;;;;;5113828;27;20035;-56
2020/12/10 10:45:51;;;;;;;2.55;1.50;;;23.40;45.90;;;;;;5123927;27;20521;-57
2020/12/10 10:48:17;;;;;;;2.40;1.33;;;23.40;45.70;;;;;;5123787;27;20035;-57
2020/12/10 10:50:42;;;;;;;3.08;1.42;;;23.30;45.70;;;;;;5134023;27;20045;-54
2020/12/10 10:53:08;;;;;;;3.58;1.70;;;23.30;45.80;;;;;;5125262;27;20046;-58
2020/12/10 10:55:34;;;;;;;3.08;1.50;;;23.30;45.70;;;;;;5122156;27;20343;-58
2020/12/10 10:57:59;;;;;;;2.60;1.55;;;23.30;45.70;;;;;;5128087;27;20068;-55
2020/12/10 11:00:25;;;;;;;2.78;1.38;;;23.30;45.80;;;;;;5122570;27;20070;-60
2020/12/10 11:02:51;;;;;;;2.80;1.40;;;23.30;45.80;;;;;;5109738;27;20036;-55
2020/12/10 11:05:16;;;;;;;2.78;1.38;;;23.20;45.80;;;;;;5113880;27;20027;-57
2020/12/10 11:07:43;;;;;;;2.63;1.48;;;23.20;45.90;;;;;;5123671;27;20023;-57
2020/12/10 11:10:09;;;;;;;2.53;1.58;;;23.20;46.00;;;;;;5126600;27;20023;-57
2020/12/10 11:12:35;;;;;;;2.55;1.50;;;23.20;45.90;;;;;;5123609;27;20023;-58
2020/12/10 11:15:00;;;;;;;2.60;1.48;;;23.10;45.90;;;;;;5135678;27;20164;-57
2020/12/10 11:17:26;;;;;;;2.85;1.50;;;23.10;46.00;;;;;;5120266;27;20091;-60
2020/12/10 11:19:52;;;;;;;2.50;1.55;;;23.10;46.00;;;;;;5125950;27;20137;-57
2020/12/10 11:22:17;;;;;;;2.13;1.38;;;23.10;46.00;;;;;;5117600;27;20015;-57
2020/12/10 11:24:43;;;;;;;3.10;1.50;;;23.10;46.10;;;;;;5128760;27;20023;-59
2020/12/10 11:27:09;;;;;;;3.08;1.30;;;23.10;46.10;;;;;;5122749;27;20428;-59
2020/12/10 11:29:35;;;;;;;2.85;1.58;;;23.00;46.20;;;;;;5124407;27;20050;-60
2020/12/10 11:32:00;;;;;;;2.67;1.42;;;23.00;46.20;;;;;;5136823;27;20130;-58
2020/12/10 11:34:26;;;;;;;2.33;1.40;;;23.00;46.20;;;;;;5132191;27;20031;-61
2020/12/10 11:36:52;;;;;;;2.30;1.40;;;23.00;46.20;;;;;;5122950;27;20034;-56
2020/12/10 11:39:18;;;;;;;2.53;1.45;;;23.00;46.20;;;;;;5132758;27;20023;-59
2020/12/10 11:41:43;;;;;;;2.88;1.58;;;23.00;46.30;;;;;;5128046;27;20230;-59
2020/12/10 11:44:10;;;;;;;2.53;1.45;;;23.00;46.30;;;;;;5126335;27;20031;-59
2020/12/10 11:46:35;;;;;;;2.47;1.48;;;23.00;46.30;;;;;;5116151;27;20110;-59
2020/12/10 11:49:01;;;;;;;3.15;1.50;;;22.90;46.20;;;;;;5114997;27;20161;-60
2020/12/10 11:51:27;;;;;;;3.00;1.50;;;22.90;46.30;;;;;;5124470;27;20031;-58
2020/12/10 11:53:53;;;;;;;2.70;1.70;;;23.00;46.40;;;;;;5126258;27;20042;-60
2020/12/10 11:56:19;;;;;;;2.83;1.60;;;22.90;46.40;;;;;;5117907;27;20047;-61
2020/12/10 11:58:45;;;;;;;2.47;1.40;;;22.90;46.40;;;;;;5135469;27;20034;-58
2020/12/10 12:01:11;;;;;;;2.38;1.30;;;22.90;46.50;;;;;;5123348;27;20023;-57
2020/12/10 12:03:36;;;;;;;2.10;1.20;;;22.90;46.60;;;;;;5121911;27;20043;-60
2020/12/10 12:06:02;;;;;;;1.80;1.02;;;22.80;46.80;;;;;;5115776;27;20022;-59
2020/12/10 12:08:28;;;;;;;1.80;1.30;;;22.80;47.10;;;;;;5111464;27;20036;-61
2020/12/10 12:11:01;;;;;;;2.47;1.30;;;22.80;47.30;;;;;;5124821;27;20047;-58
2020/12/10 12:13:27;;;;;;;1.40;1.05;;;22.90;47.50;;;;;;5113039;27;20039;-58
2020/12/10 12:15:52;;;;;;;1.67;1.05;;;22.80;48.40;;;;;;5112477;27;20091;-59
2020/12/10 12:18:18;;;;;;;2.03;1.20;;;22.90;47.90;;;;;;5122631;27;20474;-59
2020/12/10 12:20:44;;;;;;;3.28;1.20;;;22.90;48.00;;;;;;5128762;27;20034;-59
2020/12/10 12:23:11;;;;;;;2.90;1.10;;;22.90;48.30;;;;;;5114693;27;20163;-57
2020/12/10 12:25:37;;;;;;;3.00;1.05;;;23.00;48.60;;;;;;5122527;27;20038;-60
2020/12/10 12:28:03;;;;;;;2.05;1.10;;;23.00;49.30;;;;;;5130907;27;20023;-60
2020/12/10 12:30:28;;;;;;;1.75;1.10;;;23.10;49.70;;;;;;5126334;27;20027;-59
2020/12/10 12:32:55;;;;;;;1.95;0.98;;;23.10;49.00;;;;;;5133625;27;20433;-59
2020/12/10 12:35:20;;;;;;;2.10;1.00;;;23.10;49.00;;;;;;5128154;27;20112;-59
2020/12/10 12:37:46;;;;;;;2.38;1.23;;;23.10;49.10;;;;;;5096273;27;20089;-60
2020/12/10 12:40:12;;;;;;;1.40;0.98;;;23.10;49.30;;;;;;5119492;27;20046;-61
2020/12/10 12:42:42;;;;;;;1.52;1.00;;;23.10;49.30;;;;;;5120274;27;20105;-59
2020/12/10 12:45:07;;;;;;;;;;;23.10;49.20;;;;;;5130651;27;20154;-62
2020/12/10 12:47:34;;;;;;;1.80;1.00;;;23.10;49.30;;;;;;5123036;27;20334;-60
2020/12/10 12:49:59;;;;;;;1.80;1.08;;;23.10;49.20;;;;;;5128961;27;20449;-60
2020/12/10 12:52:26;;;;;;;1.50;0.95;;;23.20;49.40;;;;;;5127679;27;20027;-60
2020/12/10 12:54:52;;;;;;;1.45;1.10;;;23.20;50.00;;;;;;5120447;27;20030;-58
2020/12/10 12:57:19;;;;;;;1.08;0.77;;;23.20;49.90;;;;;;5102916;27;20119;-56